Terminal Aerodrome Forecast
Issued by NWS Topeka, KS

Home | Current Version | Previous Version | Text Only | Print | Product List | Glossary On
Versions: 1 2 3 4 5 6 7 8 9 10 11 12 13 14 15 16 17
486
FTUS43 KTOP 191138
TAFTOP
TAF
KTOP 191138Z 1912/2012 15004KT 3SM BR OVC004
     FM191700 15004KT 3SM BR OVC008
     FM191900 15005KT 6SM BR OVC010
     FM192300 11004KT 6SM -DZ BR OVC010
     FM200400 VRB03KT 3SM -DZ BR OVC003
     FM200600 VRB03KT 2SM BR OVC003=

USA.gov is the U.S. government's official web portal to all federal, state and local government web resources and services.